sensor_id;sensor_type;location;lat;lon;timestamp;P1;durP1;ratioP1;P2;durP2;ratioP2
21038;SDS011;10678;51.002;4.786;2023-07-22T00:01:49;9.75;;;5.63;;
21038;SDS011;10678;51.002;4.786;2023-07-22T00:04:14;9.48;;;5.28;;
21038;SDS011;10678;51.002;4.786;2023-07-22T00:06:40;10.82;;;6.00;;
21038;SDS011;10678;51.002;4.786;2023-07-22T00:09:06;9.98;;;5.25;;
21038;SDS011;10678;51.002;4.786;2023-07-22T00:11:31;10.13;;;5.78;;
21038;SDS011;10678;51.002;4.786;2023-07-22T00:13:57;10.18;;;5.72;;
21038;SDS011;10678;51.002;4.786;2023-07-22T00:16:24;13.80;;;6.20;;
21038;SDS011;10678;51.002;4.786;2023-07-22T00:18:49;13.00;;;6.18;;
21038;SDS011;10678;51.002;4.786;2023-07-22T00:21:15;14.30;;;6.40;;
21038;SDS011;10678;51.002;4.786;2023-07-22T00:23:40;10.73;;;5.90;;
21038;SDS011;10678;51.002;4.786;2023-07-22T00:26:06;14.65;;;6.75;;
21038;SDS011;10678;51.002;4.786;2023-07-22T00:28:32;12.88;;;6.75;;
21038;SDS011;10678;51.002;4.786;2023-07-22T00:30:57;10.50;;;6.35;;
21038;SDS011;10678;51.002;4.786;2023-07-22T00:33:23;11.15;;;5.82;;
21038;SDS011;10678;51.002;4.786;2023-07-22T00:35:49;14.27;;;6.55;;
21038;SDS011;10678;51.002;4.786;2023-07-22T00:38:18;10.55;;;6.47;;
21038;SDS011;10678;51.002;4.786;2023-07-22T00:40:44;10.70;;;6.05;;
21038;SDS011;10678;51.002;4.786;2023-07-22T00:43:10;11.82;;;6.20;;
21038;SDS011;10678;51.002;4.786;2023-07-22T00:45:36;11.70;;;6.50;;
21038;SDS011;10678;51.002;4.786;2023-07-22T00:48:02;10.60;;;6.70;;
21038;SDS011;10678;51.002;4.786;2023-07-22T00:50:29;11.45;;;6.13;;
21038;SDS011;10678;51.002;4.786;2023-07-22T00:52:56;9.63;;;5.88;;
21038;SDS011;10678;51.002;4.786;2023-07-22T00:55:22;10.93;;;6.35;;
21038;SDS011;10678;51.002;4.786;2023-07-22T00:57:48;9.88;;;6.25;;
21038;SDS011;10678;51.002;4.786;2023-07-22T01:00:14;10.25;;;6.35;;
21038;SDS011;10678;51.002;4.786;2023-07-22T01:02:41;10.50;;;6.20;;
21038;SDS011;10678;51.002;4.786;2023-07-22T01:05:08;11.80;;;6.55;;
21038;SDS011;10678;51.002;4.786;2023-07-22T01:07:36;11.85;;;6.40;;
21038;SDS011;10678;51.002;4.786;2023-07-22T01:10:03;15.73;;;6.45;;
21038;SDS011;10678;51.002;4.786;2023-07-22T01:12:30;10.18;;;6.45;;
21038;SDS011;10678;51.002;4.786;2023-07-22T01:14:56;11.85;;;6.30;;
21038;SDS011;10678;51.002;4.786;2023-07-22T01:17:22;11.27;;;6.20;;
21038;SDS011;10678;51.002;4.786;2023-07-22T01:19:48;10.15;;;5.95;;
21038;SDS011;10678;51.002;4.786;2023-07-22T01:22:14;10.02;;;6.25;;
21038;SDS011;10678;51.002;4.786;2023-07-22T01:24:41;12.43;;;6.72;;
21038;SDS011;10678;51.002;4.786;2023-07-22T01:27:07;12.82;;;6.18;;
21038;SDS011;10678;51.002;4.786;2023-07-22T01:29:35;10.75;;;6.82;;
21038;SDS011;10678;51.002;4.786;2023-07-22T01:32:01;11.60;;;6.85;;
21038;SDS011;10678;51.002;4.786;2023-07-22T01:34:26;11.23;;;6.53;;
21038;SDS011;10678;51.002;4.786;2023-07-22T01:36:52;18.08;;;6.78;;
21038;SDS011;10678;51.002;4.786;2023-07-22T01:39:19;11.32;;;6.80;;
21038;SDS011;10678;51.002;4.786;2023-07-22T01:41:45;12.82;;;7.07;;
21038;SDS011;10678;51.002;4.786;2023-07-22T01:44:11;12.40;;;6.25;;
21038;SDS011;10678;51.002;4.786;2023-07-22T01:46:37;15.45;;;6.95;;
21038;SDS011;10678;51.002;4.786;2023-07-22T01:49:06;9.70;;;6.10;;
21038;SDS011;10678;51.002;4.786;2023-07-22T01:51:34;11.98;;;7.00;;
21038;SDS011;10678;51.002;4.786;2023-07-22T01:54:02;12.45;;;6.57;;
21038;SDS011;10678;51.002;4.786;2023-07-22T01:56:28;11.40;;;6.32;;
21038;SDS011;10678;51.002;4.786;2023-07-22T01:58:54;12.63;;;7.70;;
21038;SDS011;10678;51.002;4.786;2023-07-22T02:01:20;15.20;;;7.30;;
21038;SDS011;10678;51.002;4.786;2023-07-22T02:03:45;14.20;;;7.65;;
21038;SDS011;10678;51.002;4.786;2023-07-22T02:06:11;14.15;;;7.13;;
21038;SDS011;10678;51.002;4.786;2023-07-22T02:08:37;14.07;;;7.43;;
21038;SDS011;10678;51.002;4.786;2023-07-22T02:11:04;13.48;;;7.45;;
21038;SDS011;10678;51.002;4.786;2023-07-22T02:13:31;12.15;;;7.30;;
21038;SDS011;10678;51.002;4.786;2023-07-22T02:15:58;13.75;;;7.32;;
21038;SDS011;10678;51.002;4.786;2023-07-22T02:18:24;12.60;;;6.97;;
21038;SDS011;10678;51.002;4.786;2023-07-22T02:20:50;11.20;;;6.88;;
21038;SDS011;10678;51.002;4.786;2023-07-22T02:23:16;10.48;;;6.57;;
21038;SDS011;10678;51.002;4.786;2023-07-22T02:25:41;13.40;;;6.75;;
21038;SDS011;10678;51.002;4.786;2023-07-22T02:28:07;14.48;;;7.38;;
21038;SDS011;10678;51.002;4.786;2023-07-22T02:30:36;14.88;;;7.63;;
21038;SDS011;10678;51.002;4.786;2023-07-22T02:33:02;15.98;;;8.02;;
21038;SDS011;10678;51.002;4.786;2023-07-22T02:35:30;10.88;;;6.72;;
21038;SDS011;10678;51.002;4.786;2023-07-22T02:37:56;16.77;;;8.25;;
21038;SDS011;10678;51.002;4.786;2023-07-22T02:40:21;16.00;;;7.45;;
21038;SDS011;10678;51.002;4.786;2023-07-22T02:42:47;13.82;;;6.75;;
21038;SDS011;10678;51.002;4.786;2023-07-22T02:45:12;12.32;;;7.20;;
21038;SDS011;10678;51.002;4.786;2023-07-22T02:47:38;14.80;;;7.60;;
21038;SDS011;10678;51.002;4.786;2023-07-22T02:50:05;11.13;;;7.07;;
21038;SDS011;10678;51.002;4.786;2023-07-22T02:52:31;12.45;;;7.00;;
21038;SDS011;10678;51.002;4.786;2023-07-22T02:55:06;12.93;;;7.35;;
21038;SDS011;10678;51.002;4.786;2023-07-22T02:57:36;16.75;;;7.72;;
21038;SDS011;10678;51.002;4.786;2023-07-22T03:00:03;14.65;;;7.20;;
21038;SDS011;10678;51.002;4.786;2023-07-22T03:02:38;14.38;;;7.75;;
21038;SDS011;10678;51.002;4.786;2023-07-22T03:05:05;15.07;;;7.50;;
21038;SDS011;10678;51.002;4.786;2023-07-22T03:07:35;12.15;;;7.55;;
21038;SDS011;10678;51.002;4.786;2023-07-22T03:10:05;17.10;;;6.97;;
21038;SDS011;10678;51.002;4.786;2023-07-22T03:12:31;15.25;;;7.90;;
21038;SDS011;10678;51.002;4.786;2023-07-22T03:14:57;14.60;;;7.72;;
21038;SDS011;10678;51.002;4.786;2023-07-22T03:17:22;12.60;;;7.53;;
21038;SDS011;10678;51.002;4.786;2023-07-22T03:19:48;12.98;;;7.70;;
21038;SDS011;10678;51.002;4.786;2023-07-22T03:22:14;17.15;;;8.98;;
21038;SDS011;10678;51.002;4.786;2023-07-22T03:24:44;15.55;;;7.65;;
21038;SDS011;10678;51.002;4.786;2023-07-22T03:27:10;12.25;;;7.25;;
21038;SDS011;10678;51.002;4.786;2023-07-22T03:29:37;14.35;;;7.80;;
21038;SDS011;10678;51.002;4.786;2023-07-22T03:32:03;15.02;;;8.35;;
21038;SDS011;10678;51.002;4.786;2023-07-22T03:34:29;13.80;;;8.05;;
21038;SDS011;10678;51.002;4.786;2023-07-22T03:36:55;15.45;;;8.25;;
21038;SDS011;10678;51.002;4.786;2023-07-22T03:39:21;12.57;;;7.78;;
21038;SDS011;10678;51.002;4.786;2023-07-22T03:41:47;14.90;;;8.15;;
21038;SDS011;10678;51.002;4.786;2023-07-22T03:44:12;15.20;;;9.55;;
21038;SDS011;10678;51.002;4.786;2023-07-22T03:46:38;15.68;;;8.60;;
21038;SDS011;10678;51.002;4.786;2023-07-22T03:49:04;14.32;;;8.77;;
21038;SDS011;10678;51.002;4.786;2023-07-22T03:51:29;13.75;;;8.43;;
21038;SDS011;10678;51.002;4.786;2023-07-22T03:53:55;17.60;;;8.75;;
21038;SDS011;10678;51.002;4.786;2023-07-22T03:56:20;15.45;;;8.15;;
21038;SDS011;10678;51.002;4.786;2023-07-22T03:58:48;18.73;;;8.77;;
21038;SDS011;10678;51.002;4.786;2023-07-22T04:01:14;20.65;;;8.98;;
21038;SDS011;10678;51.002;4.786;2023-07-22T04:03:40;15.20;;;8.40;;
21038;SDS011;10678;51.002;4.786;2023-07-22T04:06:05;16.23;;;8.30;;
21038;SDS011;10678;51.002;4.786;2023-07-22T04:08:31;14.25;;;8.85;;
21038;SDS011;10678;51.002;4.786;2023-07-22T04:10:57;16.75;;;8.48;;
21038;SDS011;10678;51.002;4.786;2023-07-22T04:13:23;18.98;;;9.38;;
21038;SDS011;10678;51.002;4.786;2023-07-22T04:15:50;17.55;;;9.10;;
21038;SDS011;10678;51.002;4.786;2023-07-22T04:18:16;20.42;;;8.65;;
21038;SDS011;10678;51.002;4.786;2023-07-22T04:20:43;16.85;;;8.80;;
21038;SDS011;10678;51.002;4.786;2023-07-22T04:23:09;17.33;;;9.60;;
21038;SDS011;10678;51.002;4.786;2023-07-22T04:25:38;21.38;;;9.10;;
21038;SDS011;10678;51.002;4.786;2023-07-22T04:28:10;19.65;;;8.93;;
21038;SDS011;10678;51.002;4.786;2023-07-22T04:30:36;18.90;;;8.75;;
21038;SDS011;10678;51.002;4.786;2023-07-22T04:33:03;17.05;;;7.95;;
21038;SDS011;10678;51.002;4.786;2023-07-22T04:35:33;21.70;;;9.27;;
21038;SDS011;10678;51.002;4.786;2023-07-22T04:38:00;15.93;;;9.35;;
21038;SDS011;10678;51.002;4.786;2023-07-22T04:40:26;20.25;;;9.20;;
21038;SDS011;10678;51.002;4.786;2023-07-22T04:42:51;16.05;;;8.40;;
21038;SDS011;10678;51.002;4.786;2023-07-22T04:45:17;17.98;;;9.02;;
21038;SDS011;10678;51.002;4.786;2023-07-22T04:47:45;15.80;;;9.27;;
21038;SDS011;10678;51.002;4.786;2023-07-22T04:50:17;20.20;;;9.13;;
21038;SDS011;10678;51.002;4.786;2023-07-22T04:52:44;19.33;;;9.60;;
21038;SDS011;10678;51.002;4.786;2023-07-22T04:55:12;20.40;;;9.10;;
21038;SDS011;10678;51.002;4.786;2023-07-22T04:57:38;18.40;;;9.93;;
21038;SDS011;10678;51.002;4.786;2023-07-22T05:00:06;17.13;;;9.05;;
21038;SDS011;10678;51.002;4.786;2023-07-22T05:02:38;16.40;;;8.90;;
21038;SDS011;10678;51.002;4.786;2023-07-22T05:05:04;15.70;;;8.77;;
21038;SDS011;10678;51.002;4.786;2023-07-22T05:07:30;14.68;;;8.63;;
21038;SDS011;10678;51.002;4.786;2023-07-22T05:09:55;16.23;;;9.20;;
21038;SDS011;10678;51.002;4.786;2023-07-22T05:12:21;18.42;;;9.00;;
21038;SDS011;10678;51.002;4.786;2023-07-22T05:14:47;16.75;;;8.75;;
21038;SDS011;10678;51.002;4.786;2023-07-22T05:17:13;20.58;;;8.95;;
21038;SDS011;10678;51.002;4.786;2023-07-22T05:19:39;17.20;;;8.13;;
21038;SDS011;10678;51.002;4.786;2023-07-22T05:22:05;19.98;;;9.07;;
21038;SDS011;10678;51.002;4.786;2023-07-22T05:24:31;14.75;;;8.20;;
21038;SDS011;10678;51.002;4.786;2023-07-22T05:26:56;18.48;;;9.02;;
21038;SDS011;10678;51.002;4.786;2023-07-22T05:29:22;16.08;;;9.05;;
21038;SDS011;10678;51.002;4.786;2023-07-22T05:31:47;16.52;;;8.52;;
21038;SDS011;10678;51.002;4.786;2023-07-22T05:34:13;17.90;;;8.98;;
21038;SDS011;10678;51.002;4.786;2023-07-22T05:36:39;22.73;;;9.15;;
21038;SDS011;10678;51.002;4.786;2023-07-22T05:39:05;18.58;;;8.50;;
21038;SDS011;10678;51.002;4.786;2023-07-22T05:41:32;15.82;;;8.30;;
21038;SDS011;10678;51.002;4.786;2023-07-22T05:43:58;17.05;;;8.63;;
21038;SDS011;10678;51.002;4.786;2023-07-22T05:46:24;15.65;;;8.50;;
21038;SDS011;10678;51.002;4.786;2023-07-22T05:48:50;24.73;;;9.60;;
21038;SDS011;10678;51.002;4.786;2023-07-22T05:51:15;18.42;;;8.77;;
21038;SDS011;10678;51.002;4.786;2023-07-22T05:53:42;17.20;;;8.70;;
21038;SDS011;10678;51.002;4.786;2023-07-22T05:56:07;16.30;;;8.32;;
21038;SDS011;10678;51.002;4.786;2023-07-22T05:58:34;13.13;;;7.57;;
21038;SDS011;10678;51.002;4.786;2023-07-22T06:00:59;20.33;;;9.45;;
21038;SDS011;10678;51.002;4.786;2023-07-22T06:03:25;17.60;;;9.13;;
21038;SDS011;10678;51.002;4.786;2023-07-22T06:05:50;18.45;;;8.68;;
21038;SDS011;10678;51.002;4.786;2023-07-22T06:08:16;18.35;;;8.40;;
21038;SDS011;10678;51.002;4.786;2023-07-22T06:10:42;16.30;;;8.48;;
21038;SDS011;10678;51.002;4.786;2023-07-22T06:13:07;16.85;;;8.23;;
21038;SDS011;10678;51.002;4.786;2023-07-22T06:15:33;17.45;;;8.23;;
21038;SDS011;10678;51.002;4.786;2023-07-22T06:17:59;19.02;;;8.63;;
21038;SDS011;10678;51.002;4.786;2023-07-22T06:20:25;17.05;;;8.27;;
21038;SDS011;10678;51.002;4.786;2023-07-22T06:22:51;18.30;;;8.65;;
21038;SDS011;10678;51.002;4.786;2023-07-22T06:25:17;19.65;;;8.50;;
21038;SDS011;10678;51.002;4.786;2023-07-22T06:27:42;14.52;;;8.10;;
21038;SDS011;10678;51.002;4.786;2023-07-22T06:30:08;14.52;;;8.10;;
21038;SDS011;10678;51.002;4.786;2023-07-22T06:32:36;16.48;;;7.28;;
21038;SDS011;10678;51.002;4.786;2023-07-22T06:35:02;17.42;;;7.75;;
21038;SDS011;10678;51.002;4.786;2023-07-22T06:37:28;14.82;;;7.28;;
21038;SDS011;10678;51.002;4.786;2023-07-22T06:39:53;17.95;;;7.50;;
21038;SDS011;10678;51.002;4.786;2023-07-22T06:42:19;19.50;;;6.63;;
21038;SDS011;10678;51.002;4.786;2023-07-22T06:44:45;20.23;;;7.38;;
21038;SDS011;10678;51.002;4.786;2023-07-22T06:47:10;14.20;;;7.53;;
21038;SDS011;10678;51.002;4.786;2023-07-22T06:49:36;15.00;;;7.00;;
21038;SDS011;10678;51.002;4.786;2023-07-22T06:52:01;19.20;;;6.82;;
21038;SDS011;10678;51.002;4.786;2023-07-22T06:54:27;13.82;;;6.30;;
21038;SDS011;10678;51.002;4.786;2023-07-22T06:56:53;11.57;;;6.03;;
21038;SDS011;10678;51.002;4.786;2023-07-22T06:59:19;13.35;;;6.75;;
21038;SDS011;10678;51.002;4.786;2023-07-22T07:01:45;14.15;;;5.93;;
21038;SDS011;10678;51.002;4.786;2023-07-22T07:04:10;16.30;;;6.03;;
21038;SDS011;10678;51.002;4.786;2023-07-22T07:06:36;14.30;;;6.32;;
21038;SDS011;10678;51.002;4.786;2023-07-22T07:09:03;12.45;;;5.63;;
21038;SDS011;10678;51.002;4.786;2023-07-22T07:11:30;15.30;;;5.55;;
21038;SDS011;10678;51.002;4.786;2023-07-22T07:13:56;13.93;;;5.50;;
21038;SDS011;10678;51.002;4.786;2023-07-22T07:16:26;14.88;;;5.68;;
21038;SDS011;10678;51.002;4.786;2023-07-22T07:18:53;14.27;;;5.88;;
21038;SDS011;10678;51.002;4.786;2023-07-22T07:21:20;14.25;;;5.38;;
21038;SDS011;10678;51.002;4.786;2023-07-22T07:23:47;16.48;;;6.00;;
21038;SDS011;10678;51.002;4.786;2023-07-22T07:26:13;13.02;;;4.53;;
21038;SDS011;10678;51.002;4.786;2023-07-22T07:28:38;13.23;;;4.90;;
21038;SDS011;10678;51.002;4.786;2023-07-22T07:31:04;16.92;;;5.32;;
21038;SDS011;10678;51.002;4.786;2023-07-22T07:33:30;16.02;;;4.97;;
21038;SDS011;10678;51.002;4.786;2023-07-22T07:35:56;13.82;;;4.47;;
21038;SDS011;10678;51.002;4.786;2023-07-22T07:38:21;13.02;;;4.45;;
21038;SDS011;10678;51.002;4.786;2023-07-22T07:40:51;10.93;;;4.40;;
21038;SDS011;10678;51.002;4.786;2023-07-22T07:43:38;12.80;;;4.30;;
21038;SDS011;10678;51.002;4.786;2023-07-22T07:48:50;12.05;;;4.68;;
21038;SDS011;10678;51.002;4.786;2023-07-22T07:51:18;8.63;;;3.50;;
21038;SDS011;10678;51.002;4.786;2023-07-22T07:53:46;11.13;;;4.50;;
21038;SDS011;10678;51.002;4.786;2023-07-22T07:56:12;9.90;;;4.40;;
21038;SDS011;10678;51.002;4.786;2023-07-22T07:58:40;12.15;;;4.40;;
21038;SDS011;10678;51.002;4.786;2023-07-22T08:01:06;13.88;;;4.63;;
21038;SDS011;10678;51.002;4.786;2023-07-22T08:03:32;11.85;;;3.75;;
21038;SDS011;10678;51.002;4.786;2023-07-22T08:05:59;16.63;;;4.43;;
21038;SDS011;10678;51.002;4.786;2023-07-22T08:08:25;10.65;;;4.30;;
21038;SDS011;10678;51.002;4.786;2023-07-22T08:11:00;13.40;;;4.07;;
21038;SDS011;10678;51.002;4.786;2023-07-22T08:13:38;12.63;;;4.13;;
21038;SDS011;10678;51.002;4.786;2023-07-22T08:16:05;16.58;;;4.32;;
21038;SDS011;10678;51.002;4.786;2023-07-22T08:18:35;11.05;;;4.10;;
21038;SDS011;10678;51.002;4.786;2023-07-22T08:21:02;10.98;;;4.10;;
21038;SDS011;10678;51.002;4.786;2023-07-22T08:23:29;9.80;;;3.88;;
21038;SDS011;10678;51.002;4.786;2023-07-22T08:25:55;12.85;;;3.40;;
21038;SDS011;10678;51.002;4.786;2023-07-22T08:28:20;12.73;;;4.53;;
21038;SDS011;10678;51.002;4.786;2023-07-22T08:30:49;11.40;;;3.85;;
21038;SDS011;10678;51.002;4.786;2023-07-22T08:33:15;10.30;;;3.53;;
21038;SDS011;10678;51.002;4.786;2023-07-22T08:35:41;20.45;;;3.80;;
21038;SDS011;10678;51.002;4.786;2023-07-22T08:38:07;9.55;;;3.83;;
21038;SDS011;10678;51.002;4.786;2023-07-22T08:40:34;10.88;;;3.42;;
21038;SDS011;10678;51.002;4.786;2023-07-22T08:43:01;9.40;;;3.17;;
21038;SDS011;10678;51.002;4.786;2023-07-22T08:45:29;9.40;;;3.58;;
21038;SDS011;10678;51.002;4.786;2023-07-22T08:47:57;8.63;;;3.20;;
21038;SDS011;10678;51.002;4.786;2023-07-22T08:50:24;7.97;;;3.03;;
21038;SDS011;10678;51.002;4.786;2023-07-22T08:52:54;7.40;;;2.80;;
21038;SDS011;10678;51.002;4.786;2023-07-22T08:55:20;11.70;;;2.78;;
21038;SDS011;10678;51.002;4.786;2023-07-22T08:57:48;7.10;;;2.80;;
21038;SDS011;10678;51.002;4.786;2023-07-22T09:00:14;10.07;;;2.75;;
21038;SDS011;10678;51.002;4.786;2023-07-22T09:02:41;9.45;;;2.72;;
21038;SDS011;10678;51.002;4.786;2023-07-22T09:05:07;11.20;;;3.33;;
21038;SDS011;10678;51.002;4.786;2023-07-22T09:07:34;7.68;;;2.58;;
21038;SDS011;10678;51.002;4.786;2023-07-22T09:10:01;11.23;;;2.45;;
21038;SDS011;10678;51.002;4.786;2023-07-22T09:12:27;6.80;;;2.22;;
21038;SDS011;10678;51.002;4.786;2023-07-22T09:14:54;7.35;;;2.45;;
21038;SDS011;10678;51.002;4.786;2023-07-22T09:17:20;5.97;;;1.98;;
21038;SDS011;10678;51.002;4.786;2023-07-22T09:19:47;13.20;;;2.38;;
21038;SDS011;10678;51.002;4.786;2023-07-22T09:22:18;12.65;;;2.00;;
21038;SDS011;10678;51.002;4.786;2023-07-22T09:24:43;8.48;;;2.60;;
21038;SDS011;10678;51.002;4.786;2023-07-22T09:27:09;4.72;;;1.60;;
21038;SDS011;10678;51.002;4.786;2023-07-22T09:29:35;7.13;;;1.83;;
21038;SDS011;10678;51.002;4.786;2023-07-22T09:32:02;5.72;;;1.90;;
21038;SDS011;10678;51.002;4.786;2023-07-22T09:34:28;7.68;;;2.10;;
21038;SDS011;10678;51.002;4.786;2023-07-22T09:36:57;9.75;;;2.28;;
21038;SDS011;10678;51.002;4.786;2023-07-22T09:39:28;5.72;;;1.88;;
21038;SDS011;10678;51.002;4.786;2023-07-22T09:41:54;4.85;;;1.80;;
21038;SDS011;10678;51.002;4.786;2023-07-22T09:44:21;6.60;;;2.17;;
21038;SDS011;10678;51.002;4.786;2023-07-22T09:46:47;7.20;;;1.98;;
21038;SDS011;10678;51.002;4.786;2023-07-22T09:49:14;4.13;;;1.38;;
21038;SDS011;10678;51.002;4.786;2023-07-22T09:51:42;3.95;;;1.35;;
21038;SDS011;10678;51.002;4.786;2023-07-22T09:54:07;4.68;;;1.83;;
21038;SDS011;10678;51.002;4.786;2023-07-22T09:56:42;5.00;;;1.80;;
21038;SDS011;10678;51.002;4.786;2023-07-22T09:59:12;5.45;;;1.73;;
21038;SDS011;10678;51.002;4.786;2023-07-22T10:01:39;4.72;;;1.60;;
21038;SDS011;10678;51.002;4.786;2023-07-22T10:04:05;4.80;;;1.40;;
21038;SDS011;10678;51.002;4.786;2023-07-22T10:06:32;5.18;;;1.50;;
21038;SDS011;10678;51.002;4.786;2023-07-22T10:09:02;5.15;;;1.42;;
21038;SDS011;10678;51.002;4.786;2023-07-22T10:11:32;4.40;;;1.58;;
21038;SDS011;10678;51.002;4.786;2023-07-22T10:13:59;7.40;;;1.75;;
21038;SDS011;10678;51.002;4.786;2023-07-22T10:16:26;6.85;;;1.92;;
21038;SDS011;10678;51.002;4.786;2023-07-22T10:18:53;6.47;;;1.55;;
21038;SDS011;10678;51.002;4.786;2023-07-22T10:21:20;6.53;;;1.85;;
21038;SDS011;10678;51.002;4.786;2023-07-22T10:23:47;4.90;;;1.70;;
21038;SDS011;10678;51.002;4.786;2023-07-22T10:26:15;5.80;;;1.70;;
21038;SDS011;10678;51.002;4.786;2023-07-22T10:28:43;6.82;;;1.60;;
21038;SDS011;10678;51.002;4.786;2023-07-22T10:31:10;8.10;;;1.50;;
21038;SDS011;10678;51.002;4.786;2023-07-22T10:33:37;5.20;;;1.33;;
21038;SDS011;10678;51.002;4.786;2023-07-22T10:38:34;4.05;;;1.58;;
21038;SDS011;10678;51.002;4.786;2023-07-22T10:41:00;6.28;;;2.08;;
21038;SDS011;10678;51.002;4.786;2023-07-22T10:43:35;7.20;;;2.17;;
21038;SDS011;10678;51.002;4.786;2023-07-22T10:48:38;5.63;;;1.65;;
21038;SDS011;10678;51.002;4.786;2023-07-22T10:53:47;4.93;;;1.88;;
21038;SDS011;10678;51.002;4.786;2023-07-22T11:14:25;6.38;;;1.60;;
21038;SDS011;10678;51.002;4.786;2023-07-22T11:16:52;3.72;;;1.48;;
21038;SDS011;10678;51.002;4.786;2023-07-22T11:19:21;6.45;;;1.60;;
21038;SDS011;10678;51.002;4.786;2023-07-22T11:21:49;4.05;;;1.35;;
21038;SDS011;10678;51.002;4.786;2023-07-22T11:24:15;4.65;;;1.30;;
21038;SDS011;10678;51.002;4.786;2023-07-22T11:26:41;5.25;;;1.20;;
21038;SDS011;10678;51.002;4.786;2023-07-22T11:29:08;3.90;;;1.58;;
21038;SDS011;10678;51.002;4.786;2023-07-22T11:31:35;4.10;;;1.30;;
21038;SDS011;10678;51.002;4.786;2023-07-22T11:34:07;4.57;;;1.30;;
21038;SDS011;10678;51.002;4.786;2023-07-22T11:36:34;3.53;;;1.30;;
21038;SDS011;10678;51.002;4.786;2023-07-22T11:39:04;3.70;;;1.20;;
21038;SDS011;10678;51.002;4.786;2023-07-22T11:41:30;3.45;;;1.08;;
21038;SDS011;10678;51.002;4.786;2023-07-22T11:43:57;3.42;;;1.15;;
21038;SDS011;10678;51.002;4.786;2023-07-22T11:46:23;3.13;;;1.05;;
21038;SDS011;10678;51.002;4.786;2023-07-22T11:48:51;3.92;;;1.30;;
21038;SDS011;10678;51.002;4.786;2023-07-22T11:51:20;6.47;;;1.27;;
21038;SDS011;10678;51.002;4.786;2023-07-22T11:53:49;5.65;;;1.70;;
21038;SDS011;10678;51.002;4.786;2023-07-22T11:58:51;7.97;;;1.45;;
21038;SDS011;10678;51.002;4.786;2023-07-22T12:01:18;4.72;;;1.27;;
21038;SDS011;10678;51.002;4.786;2023-07-22T12:03:44;3.80;;;1.17;;
21038;SDS011;10678;51.002;4.786;2023-07-22T12:06:09;4.07;;;1.10;;
21038;SDS011;10678;51.002;4.786;2023-07-22T12:08:36;4.25;;;1.30;;
21038;SDS011;10678;51.002;4.786;2023-07-22T12:11:07;3.75;;;1.02;;
21038;SDS011;10678;51.002;4.786;2023-07-22T12:13:36;5.82;;;1.73;;
21038;SDS011;10678;51.002;4.786;2023-07-22T12:16:03;5.20;;;1.23;;
21038;SDS011;10678;51.002;4.786;2023-07-22T12:18:46;6.15;;;1.70;;
21038;SDS011;10678;51.002;4.786;2023-07-22T12:21:12;6.72;;;1.50;;
21038;SDS011;10678;51.002;4.786;2023-07-22T12:23:39;4.90;;;1.40;;
21038;SDS011;10678;51.002;4.786;2023-07-22T12:26:05;4.22;;;1.48;;
21038;SDS011;10678;51.002;4.786;2023-07-22T12:28:31;4.80;;;1.77;;
21038;SDS011;10678;51.002;4.786;2023-07-22T12:30:56;4.78;;;1.45;;
21038;SDS011;10678;51.002;4.786;2023-07-22T12:33:23;5.05;;;1.63;;
21038;SDS011;10678;51.002;4.786;2023-07-22T12:35:50;8.43;;;1.90;;
21038;SDS011;10678;51.002;4.786;2023-07-22T12:38:18;3.88;;;1.85;;
21038;SDS011;10678;51.002;4.786;2023-07-22T12:40:43;5.57;;;1.55;;
21038;SDS011;10678;51.002;4.786;2023-07-22T12:43:09;8.23;;;1.90;;
21038;SDS011;10678;51.002;4.786;2023-07-22T12:45:34;7.40;;;1.90;;
21038;SDS011;10678;51.002;4.786;2023-07-22T12:48:00;5.20;;;1.38;;
21038;SDS011;10678;51.002;4.786;2023-07-22T12:50:26;7.80;;;1.67;;
21038;SDS011;10678;51.002;4.786;2023-07-22T12:52:54;4.68;;;1.65;;
21038;SDS011;10678;51.002;4.786;2023-07-22T12:55:20;4.82;;;1.52;;
21038;SDS011;10678;51.002;4.786;2023-07-22T12:57:45;4.05;;;1.20;;
21038;SDS011;10678;51.002;4.786;2023-07-22T13:00:11;5.13;;;1.58;;
21038;SDS011;10678;51.002;4.786;2023-07-22T13:02:37;5.82;;;1.52;;
21038;SDS011;10678;51.002;4.786;2023-07-22T13:05:03;7.28;;;1.58;;
21038;SDS011;10678;51.002;4.786;2023-07-22T13:07:31;4.57;;;1.60;;
21038;SDS011;10678;51.002;4.786;2023-07-22T13:09:56;6.55;;;1.63;;
21038;SDS011;10678;51.002;4.786;2023-07-22T13:12:24;5.35;;;1.50;;
21038;SDS011;10678;51.002;4.786;2023-07-22T13:14:50;5.35;;;1.67;;
21038;SDS011;10678;51.002;4.786;2023-07-22T13:17:15;4.10;;;1.40;;
21038;SDS011;10678;51.002;4.786;2023-07-22T13:19:41;3.78;;;1.50;;
21038;SDS011;10678;51.002;4.786;2023-07-22T13:22:06;4.22;;;1.70;;
21038;SDS011;10678;51.002;4.786;2023-07-22T13:24:32;3.33;;;1.20;;
21038;SDS011;10678;51.002;4.786;2023-07-22T13:26:57;4.13;;;1.60;;
21038;SDS011;10678;51.002;4.786;2023-07-22T13:29:23;4.03;;;1.30;;
21038;SDS011;10678;51.002;4.786;2023-07-22T13:31:49;3.58;;;1.38;;
21038;SDS011;10678;51.002;4.786;2023-07-22T13:34:14;5.93;;;1.10;;
21038;SDS011;10678;51.002;4.786;2023-07-22T13:36:40;5.05;;;1.48;;
21038;SDS011;10678;51.002;4.786;2023-07-22T13:39:06;8.48;;;2.13;;
21038;SDS011;10678;51.002;4.786;2023-07-22T13:41:31;8.13;;;2.30;;
21038;SDS011;10678;51.002;4.786;2023-07-22T13:43:57;11.90;;;2.25;;
21038;SDS011;10678;51.002;4.786;2023-07-22T13:46:22;3.95;;;1.13;;
21038;SDS011;10678;51.002;4.786;2023-07-22T13:48:48;4.25;;;1.35;;
21038;SDS011;10678;51.002;4.786;2023-07-22T13:51:14;4.07;;;1.60;;
21038;SDS011;10678;51.002;4.786;2023-07-22T13:53:39;6.57;;;1.38;;
21038;SDS011;10678;51.002;4.786;2023-07-22T13:56:05;4.72;;;1.40;;
21038;SDS011;10678;51.002;4.786;2023-07-22T13:58:30;6.13;;;1.70;;
21038;SDS011;10678;51.002;4.786;2023-07-22T14:00:56;4.32;;;1.50;;
21038;SDS011;10678;51.002;4.786;2023-07-22T14:03:22;5.70;;;1.30;;
21038;SDS011;10678;51.002;4.786;2023-07-22T14:05:48;4.22;;;1.40;;
21038;SDS011;10678;51.002;4.786;2023-07-22T14:08:13;5.47;;;1.80;;
21038;SDS011;10678;51.002;4.786;2023-07-22T14:10:39;4.20;;;1.20;;
21038;SDS011;10678;51.002;4.786;2023-07-22T14:13:04;3.75;;;1.50;;
21038;SDS011;10678;51.002;4.786;2023-07-22T14:15:30;10.07;;;1.80;;
21038;SDS011;10678;51.002;4.786;2023-07-22T14:17:56;4.10;;;1.35;;
21038;SDS011;10678;51.002;4.786;2023-07-22T14:20:22;9.45;;;1.88;;
21038;SDS011;10678;51.002;4.786;2023-07-22T14:22:47;12.13;;;1.58;;
21038;SDS011;10678;51.002;4.786;2023-07-22T14:25:15;4.15;;;1.30;;
21038;SDS011;10678;51.002;4.786;2023-07-22T14:27:41;5.45;;;1.45;;
21038;SDS011;10678;51.002;4.786;2023-07-22T14:30:07;8.45;;;1.80;;
21038;SDS011;10678;51.002;4.786;2023-07-22T14:32:33;4.18;;;1.65;;
21038;SDS011;10678;51.002;4.786;2023-07-22T14:34:58;9.98;;;1.80;;
21038;SDS011;10678;51.002;4.786;2023-07-22T14:37:24;5.40;;;1.50;;
21038;SDS011;10678;51.002;4.786;2023-07-22T14:39:50;6.63;;;1.60;;
21038;SDS011;10678;51.002;4.786;2023-07-22T14:42:15;7.30;;;1.58;;
21038;SDS011;10678;51.002;4.786;2023-07-22T14:44:41;22.27;;;2.13;;
21038;SDS011;10678;51.002;4.786;2023-07-22T14:47:06;12.32;;;1.83;;
21038;SDS011;10678;51.002;4.786;2023-07-22T14:49:32;6.40;;;1.70;;
21038;SDS011;10678;51.002;4.786;2023-07-22T14:51:58;5.75;;;1.52;;
21038;SDS011;10678;51.002;4.786;2023-07-22T14:54:23;3.83;;;1.30;;
21038;SDS011;10678;51.002;4.786;2023-07-22T14:56:49;7.82;;;1.70;;
21038;SDS011;10678;51.002;4.786;2023-07-22T14:59:15;5.57;;;1.63;;
21038;SDS011;10678;51.002;4.786;2023-07-22T15:01:41;6.25;;;1.70;;
21038;SDS011;10678;51.002;4.786;2023-07-22T15:04:07;4.22;;;1.60;;
21038;SDS011;10678;51.002;4.786;2023-07-22T15:06:34;3.45;;;1.33;;
21038;SDS011;10678;51.002;4.786;2023-07-22T15:09:01;5.93;;;1.50;;